Arethusa — 9HJR9 — position and weather

sailwx.info

Track history (hours):
 
Tides and Currents Weather Stations Pressure Air Temp Water Temp Dewpoint Dewpoint Depression Visibility Wind Speed Wind Dir Waves Ship Positions

Arethusa

Last reported at 2016-May-05 03:20 UTC. Time now 2016-May-05 16:06 UTC.
Position N 42°49' E 010°20'.

Length 60 m; draft 3 m.

Type: Passenger vessel. MMSI: 249069000.

Date/timePositionNaut miles runAvg speedWind from/ knotsBaromVisibWave heightAir tempDewpointWater temp
2016-May-05 03:20N 42°49' E 010°20'0 0.0
2016-May-05 01:32N 42°49' E 010°20'0 0.0
2016-May-05 00:20N 42°49' E 010°20'0 0.0
2016-May-04 21:14N 42°49' E 010°20'25 9.3
2016-May-04 18:34N 43°13' E 010°15'10 9.8
2016-May-04 17:34N 43°23' E 010°13'6 6.0
2016-May-04 16:33N 43°29' E 010°14'5 5.0
2016-May-04 15:31N 43°33' E 010°18'0 0.0
2016-May-04 14:31N 43°33' E 010°18'0 0.0
2016-May-04 13:31N 43°33' E 010°18'0 0.0
2016-May-04 12:31N 43°33' E 010°18'0 0.0
2016-May-04 11:31N 43°33' E 010°18'0 0.0
2016-May-04 10:25N 43°33' E 010°18'0 0.0
2016-May-04 09:31N 43°33' E 010°18'0 0.0
2016-May-04 08:31N 43°33' E 010°18'0 0.0
2016-May-04 07:31N 43°33' E 010°18'0 0.0
2016-May-04 06:31N 43°33' E 010°18'0 0.0
2016-May-04 05:28N 43°33' E 010°18'0 0.0
2016-May-04 04:28N 43°33' E 010°18'0 0.0
2016-May-04 03:28N 43°33' E 010°18'0 0.0
2016-May-04 02:31N 43°33' E 010°18'0 0.0
2016-May-04 01:31N 43°33' E 010°18'0 0.0
2016-May-04 00:31N 43°33' E 010°18'0 0.0
2016-May-03 23:31N 43°33' E 010°18'0 0.0
2016-May-03 22:31N 43°33' E 010°18'5 5.5
2016-May-03 21:34N 43°28' E 010°15'1212.0
2016-May-03 20:33N 43°16' E 010°17'1111.2
2016-May-03 19:34N 43°05' E 010°18'1311.2
2016-May-03 18:22N 42°52' E 010°20'4 3.8
2016-May-03 17:25N 42°48' E 010°20'1 0.7
2016-May-03 16:27N 42°49' E 010°20'0 0.0
2016-May-03 15:30N 42°49' E 010°20'1 0.0
2016-May-02 20:31N 42°48' E 010°20'30 1.6
2016-May-02 01:33N 43°15' E 009°60'1111.1
2016-May-02 00:33N 43°26' E 010°02'1110.9
2016-May-01 23:34N 43°36' E 010°04'1110.8
2016-May-01 22:33N 43°47' E 010°04'1110.5
2016-May-01 21:33N 43°58' E 010°03'5 4.4
2016-May-01 20:31N 44°02' E 010°02'0 0.0
2016-May-01 19:31N 44°02' E 010°02'0 0.0
2016-May-01 18:28N 44°02' E 010°02'0 0.0
2016-May-01 17:31N 44°02' E 010°02'0 0.0
2016-May-01 16:31N 44°02' E 010°02'0 0.0
2016-May-01 15:31N 44°02' E 010°02'0 0.0
2016-May-01 14:31N 44°02' E 010°02'0 0.0
2016-May-01 13:25N 44°02' E 010°02'0 0.0
2016-May-01 12:31N 44°02' E 010°02'0 0.0
2016-May-01 11:28N 44°02' E 010°02'0 0.0
2016-May-01 10:31N 44°02' E 010°02'7 7.1
2016-May-01 09:33N 43°60' E 009°53'4 4.0
2016-May-01 08:32N 44°03' E 009°51'0 0.0
2016-May-01 07:32N 44°03' E 009°51'0 0.0
2016-May-01 06:32N 44°03' E 009°51'0 0.0
2016-May-01 05:32N 44°03' E 009°51'0 0.0
2016-May-01 04:32N 44°03' E 009°51'0 0.0
2016-May-01 03:32N 44°03' E 009°51'0 0.0
2016-May-01 02:32N 44°03' E 009°51'0 0.0
2016-May-01 01:32N 44°03' E 009°51'0 0.0
2016-May-01 00:32N 44°03' E 009°51'0 0.0
2016-Apr-30 23:32N 44°03' E 009°51'0 0.0
2016-Apr-30 22:32N 44°03' E 009°51'0 0.0
2016-Apr-30 21:32N 44°03' E 009°51'0 0.0
2016-Apr-30 20:32N 44°03' E 009°51'0 0.0
2016-Apr-30 19:32N 44°03' E 009°51'0 0.0
2016-Apr-30 18:32N 44°03' E 009°51'0 0.0
2016-Apr-30 17:32N 44°03' E 009°51'0 0.0
2016-Apr-30 16:32N 44°03' E 009°51'0 0.0
2016-Apr-30 15:32N 44°03' E 009°51'0 0.0
2016-Apr-30 14:32N 44°03' E 009°51'0 0.0
2016-Apr-30 13:32N 44°03' E 009°51'0 0.0
2016-Apr-30 12:23N 44°03' E 009°51'0 0.0
2016-Apr-30 11:32N 44°03' E 009°51'0 0.0
2016-Apr-30 10:34N 44°03' E 009°51'0 0.0
2016-Apr-30 09:34N 44°03' E 009°51'0 0.0
2016-Apr-30 08:33N 44°03' E 009°51'0 0.0
2016-Apr-30 07:33N 44°03' E 009°51'0 0.0
2016-Apr-30 06:34N 44°03' E 009°51'0 0.0
2016-Apr-30 05:34N 44°03' E 009°51'0 0.0
2016-Apr-30 04:33N 44°03' E 009°51'0 0.0
2016-Apr-30 03:34N 44°03' E 009°51'0 0.0
2016-Apr-30 02:34N 44°03' E 009°51'0 0.0
2016-Apr-30 01:34N 44°03' E 009°51'0 0.0
2016-Apr-30 00:34N 44°03' E 009°51'0 0.0
2016-Apr-29 23:33N 44°03' E 009°51'0 0.0
2016-Apr-29 22:34N 44°03' E 009°51'0 0.0
2016-Apr-29 21:34N 44°03' E 009°51'0 0.0
2016-Apr-29 20:34N 44°03' E 009°51'3 3.5
2016-Apr-29 19:34N 43°60' E 009°52'1010.1
2016-Apr-29 18:34N 44°04' E 009°39'1010.2
2016-Apr-29 17:34N 44°10' E 009°28'13 1.0
2016-Apr-29 04:33N 44°14' E 009°10'1110.9
2016-Apr-29 03:34N 44°09' E 008°57'1110.5
2016-Apr-29 02:33N 44°04' E 008°44'6310.3
2016-Apr-28 20:27N 43°40' E 007°23'4 4.5
2016-Apr-28 19:28N 43°42' E 007°17'0 0.0
2016-Apr-28 18:28N 43°42' E 007°17'0 0.0
2016-Apr-28 05:28N 43°42' E 007°17'0 0.0
2016-Apr-28 00:28N 43°42' E 007°17'0 0.0
2016-Apr-27 23:28N 43°42' E 007°17'0 0.0
2016-Apr-27 22:28N 43°42' E 007°17'0 0.0
2016-Apr-27 21:28N 43°42' E 007°17'0 0.0
2016-Apr-27 20:28N 43°42' E 007°17'0 0.0
2016-Apr-27 19:22N 43°42' E 007°17'0 0.0
2016-Apr-27 18:28N 43°42' E 007°17'0 0.0
2016-Apr-27 17:16N 43°42' E 007°17'0 0.0
2016-Apr-27 16:28N 43°42' E 007°17'0 0.0
2016-Apr-27 15:10N 43°42' E 007°17'0 0.0
2016-Apr-27 13:16N 43°42' E 007°17'0 0.0
2016-Apr-27 12:28N 43°42' E 007°17'0 0.0
2016-Apr-27 11:28N 43°42' E 007°17'0 0.0
2016-Apr-27 10:28N 43°42' E 007°17'0 0.0
2016-Apr-27 09:28N 43°42' E 007°17'0 0.0
2016-Apr-27 08:28N 43°42' E 007°17'0 0.0
2016-Apr-27 07:28N 43°42' E 007°17'0 0.0
2016-Apr-27 06:28N 43°42' E 007°17'0 0.0
2016-Apr-27 05:28N 43°42' E 007°17'0 0.0
2016-Apr-27 04:28N 43°42' E 007°17'0 0.0
2016-Apr-27 03:16N 43°42' E 007°17'0 0.0
2016-Apr-27 02:28N 43°42' E 007°17'0 0.0
2016-Apr-27 01:28N 43°42' E 007°17'0 0.0
2016-Apr-27 00:22N 43°42' E 007°17'0 0.0
2016-Apr-26 23:28N 43°42' E 007°17'0 0.0
2016-Apr-26 22:22N 43°42' E 007°17'0 0.0
2016-Apr-26 21:28N 43°42' E 007°17'0 0.0
2016-Apr-26 20:28N 43°42' E 007°17'0 0.0
2016-Apr-26 19:28N 43°42' E 007°17'0 0.0
2016-Apr-26 18:28N 43°42' E 007°17'0 0.0
2016-Apr-26 17:16N 43°42' E 007°17'0 0.0
2016-Apr-26 16:22N 43°42' E 007°17'0 0.0
2016-Apr-26 15:28N 43°42' E 007°17'0 0.0
2016-Apr-26 14:28N 43°42' E 007°17'0 0.0
2016-Apr-26 13:28N 43°42' E 007°17'0 0.0
2016-Apr-26 12:16N 43°42' E 007°17'0 0.0
2016-Apr-26 10:28N 43°42' E 007°17'0 0.0
2016-Apr-26 09:28N 43°42' E 007°17'0 0.0
2016-Apr-26 08:28N 43°42' E 007°17'0 0.0
2016-Apr-26 07:22N 43°42' E 007°17'0 0.0
2016-Apr-26 06:28N 43°42' E 007°17'4 2.0
2016-Apr-26 04:33N 43°40' E 007°22'69 9.5
2016-Apr-25 21:17N 44°07' E 008°50'6 8.5
2016-Apr-25 20:33N 44°10' E 008°57'9 9.3
2016-Apr-25 19:33N 44°14' E 009°09'8 0.5
2016-Apr-25 04:33N 44°16' E 009°20'1010.4
2016-Apr-25 03:33N 44°08' E 009°30'  
Track history (hours):
 
Tides and Currents Weather Stations Pressure Air Temp Water Temp Dewpoint Dewpoint Depression Visibility Wind Speed Wind Dir Waves Ship Positions

Arethusa

Last reported at 2016-May-05 03:20 UTC. Time now 2016-May-05 16:06 UTC.
Position N 42°49' E 010°20'.

Length 60 m; draft 3 m.

Type: Passenger vessel. MMSI: 249069000.

Date/timePositionNaut miles runAvg speedWind from/ knotsBaromVisibWave heightAir tempDewpointWater temp
2016-May-05 03:20N 42°49' E 010°20'0 0.0
2016-May-05 01:32N 42°49' E 010°20'0 0.0
2016-May-05 00:20N 42°49' E 010°20'0 0.0
2016-May-04 21:14N 42°49' E 010°20'25 9.3
2016-May-04 18:34N 43°13' E 010°15'10 9.8
2016-May-04 17:34N 43°23' E 010°13'6 6.0
2016-May-04 16:33N 43°29' E 010°14'5 5.0
2016-May-04 15:31N 43°33' E 010°18'0 0.0
2016-May-04 14:31N 43°33' E 010°18'0 0.0
2016-May-04 13:31N 43°33' E 010°18'0 0.0
2016-May-04 12:31N 43°33' E 010°18'0 0.0
2016-May-04 11:31N 43°33' E 010°18'0 0.0
2016-May-04 10:25N 43°33' E 010°18'0 0.0
2016-May-04 09:31N 43°33' E 010°18'0 0.0
2016-May-04 08:31N 43°33' E 010°18'0 0.0
2016-May-04 07:31N 43°33' E 010°18'0 0.0
2016-May-04 06:31N 43°33' E 010°18'0 0.0
2016-May-04 05:28N 43°33' E 010°18'0 0.0
2016-May-04 04:28N 43°33' E 010°18'0 0.0
2016-May-04 03:28N 43°33' E 010°18'0 0.0
2016-May-04 02:31N 43°33' E 010°18'0 0.0
2016-May-04 01:31N 43°33' E 010°18'0 0.0
2016-May-04 00:31N 43°33' E 010°18'0 0.0
2016-May-03 23:31N 43°33' E 010°18'0 0.0
2016-May-03 22:31N 43°33' E 010°18'5 5.5
2016-May-03 21:34N 43°28' E 010°15'1212.0
2016-May-03 20:33N 43°16' E 010°17'1111.2
2016-May-03 19:34N 43°05' E 010°18'1311.2
2016-May-03 18:22N 42°52' E 010°20'4 3.8
2016-May-03 17:25N 42°48' E 010°20'1 0.7
2016-May-03 16:27N 42°49' E 010°20'0 0.0
2016-May-03 15:30N 42°49' E 010°20'1 0.0
2016-May-02 20:31N 42°48' E 010°20'30 1.6
2016-May-02 01:33N 43°15' E 009°60'1111.1
2016-May-02 00:33N 43°26' E 010°02'1110.9
2016-May-01 23:34N 43°36' E 010°04'1110.8
2016-May-01 22:33N 43°47' E 010°04'1110.5
2016-May-01 21:33N 43°58' E 010°03'5 4.4
2016-May-01 20:31N 44°02' E 010°02'0 0.0
2016-May-01 19:31N 44°02' E 010°02'0 0.0
2016-May-01 18:28N 44°02' E 010°02'0 0.0
2016-May-01 17:31N 44°02' E 010°02'0 0.0
2016-May-01 16:31N 44°02' E 010°02'0 0.0
2016-May-01 15:31N 44°02' E 010°02'0 0.0
2016-May-01 14:31N 44°02' E 010°02'0 0.0
2016-May-01 13:25N 44°02' E 010°02'0 0.0
2016-May-01 12:31N 44°02' E 010°02'0 0.0
2016-May-01 11:28N 44°02' E 010°02'0 0.0
2016-May-01 10:31N 44°02' E 010°02'7 7.1
2016-May-01 09:33N 43°60' E 009°53'4 4.0
2016-May-01 08:32N 44°03' E 009°51'0 0.0
2016-May-01 07:32N 44°03' E 009°51'0 0.0
2016-May-01 06:32N 44°03' E 009°51'0 0.0
2016-May-01 05:32N 44°03' E 009°51'0 0.0
2016-May-01 04:32N 44°03' E 009°51'0 0.0
2016-May-01 03:32N 44°03' E 009°51'0 0.0
2016-May-01 02:32N 44°03' E 009°51'0 0.0
2016-May-01 01:32N 44°03' E 009°51'0 0.0
2016-May-01 00:32N 44°03' E 009°51'0 0.0
2016-Apr-30 23:32N 44°03' E 009°51'0 0.0
2016-Apr-30 22:32N 44°03' E 009°51'0 0.0
2016-Apr-30 21:32N 44°03' E 009°51'0 0.0
2016-Apr-30 20:32N 44°03' E 009°51'0 0.0
2016-Apr-30 19:32N 44°03' E 009°51'0 0.0
2016-Apr-30 18:32N 44°03' E 009°51'0 0.0
2016-Apr-30 17:32N 44°03' E 009°51'0 0.0
2016-Apr-30 16:32N 44°03' E 009°51'0 0.0
2016-Apr-30 15:32N 44°03' E 009°51'0 0.0
2016-Apr-30 14:32N 44°03' E 009°51'0 0.0
2016-Apr-30 13:32N 44°03' E 009°51'0 0.0
2016-Apr-30 12:23N 44°03' E 009°51'0 0.0
2016-Apr-30 11:32N 44°03' E 009°51'0 0.0
2016-Apr-30 10:34N 44°03' E 009°51'0 0.0
2016-Apr-30 09:34N 44°03' E 009°51'0 0.0
2016-Apr-30 08:33N 44°03' E 009°51'0 0.0
2016-Apr-30 07:33N 44°03' E 009°51'0 0.0
2016-Apr-30 06:34N 44°03' E 009°51'0 0.0
2016-Apr-30 05:34N 44°03' E 009°51'0 0.0
2016-Apr-30 04:33N 44°03' E 009°51'0 0.0
2016-Apr-30 03:34N 44°03' E 009°51'0 0.0
2016-Apr-30 02:34N 44°03' E 009°51'0 0.0
2016-Apr-30 01:34N 44°03' E 009°51'0 0.0
2016-Apr-30 00:34N 44°03' E 009°51'0 0.0
2016-Apr-29 23:33N 44°03' E 009°51'0 0.0
2016-Apr-29 22:34N 44°03' E 009°51'0 0.0
2016-Apr-29 21:34N 44°03' E 009°51'0 0.0
2016-Apr-29 20:34N 44°03' E 009°51'3 3.5
2016-Apr-29 19:34N 43°60' E 009°52'1010.1
2016-Apr-29 18:34N 44°04' E 009°39'1010.2
2016-Apr-29 17:34N 44°10' E 009°28'13 1.0
2016-Apr-29 04:33N 44°14' E 009°10'1110.9
2016-Apr-29 03:34N 44°09' E 008°57'1110.5
2016-Apr-29 02:33N 44°04' E 008°44'6310.3
2016-Apr-28 20:27N 43°40' E 007°23'4 4.5
2016-Apr-28 19:28N 43°42' E 007°17'0 0.0
2016-Apr-28 18:28N 43°42' E 007°17'0 0.0
2016-Apr-28 05:28N 43°42' E 007°17'0 0.0
2016-Apr-28 00:28N 43°42' E 007°17'0 0.0
2016-Apr-27 23:28N 43°42' E 007°17'0 0.0
2016-Apr-27 22:28N 43°42' E 007°17'0 0.0
2016-Apr-27 21:28N 43°42' E 007°17'0 0.0
2016-Apr-27 20:28N 43°42' E 007°17'0 0.0
2016-Apr-27 19:22N 43°42' E 007°17'0 0.0
2016-Apr-27 18:28N 43°42' E 007°17'0 0.0
2016-Apr-27 17:16N 43°42' E 007°17'0 0.0
2016-Apr-27 16:28N 43°42' E 007°17'0 0.0
2016-Apr-27 15:10N 43°42' E 007°17'0 0.0
2016-Apr-27 13:16N 43°42' E 007°17'0 0.0
2016-Apr-27 12:28N 43°42' E 007°17'0 0.0
2016-Apr-27 11:28N 43°42' E 007°17'0 0.0
2016-Apr-27 10:28N 43°42' E 007°17'0 0.0
2016-Apr-27 09:28N 43°42' E 007°17'0 0.0
2016-Apr-27 08:28N 43°42' E 007°17'0 0.0
2016-Apr-27 07:28N 43°42' E 007°17'0 0.0
2016-Apr-27 06:28N 43°42' E 007°17'0 0.0
2016-Apr-27 05:28N 43°42' E 007°17'0 0.0
2016-Apr-27 04:28N 43°42' E 007°17'0 0.0
2016-Apr-27 03:16N 43°42' E 007°17'0 0.0
2016-Apr-27 02:28N 43°42' E 007°17'0 0.0
2016-Apr-27 01:28N 43°42' E 007°17'0 0.0
2016-Apr-27 00:22N 43°42' E 007°17'0 0.0
2016-Apr-26 23:28N 43°42' E 007°17'0 0.0
2016-Apr-26 22:22N 43°42' E 007°17'0 0.0
2016-Apr-26 21:28N 43°42' E 007°17'0 0.0
2016-Apr-26 20:28N 43°42' E 007°17'0 0.0
2016-Apr-26 19:28N 43°42' E 007°17'0 0.0
2016-Apr-26 18:28N 43°42' E 007°17'0 0.0
2016-Apr-26 17:16N 43°42' E 007°17'0 0.0
2016-Apr-26 16:22N 43°42' E 007°17'0 0.0
2016-Apr-26 15:28N 43°42' E 007°17'0 0.0
2016-Apr-26 14:28N 43°42' E 007°17'0 0.0
2016-Apr-26 13:28N 43°42' E 007°17'0 0.0
2016-Apr-26 12:16N 43°42' E 007°17'0 0.0
2016-Apr-26 10:28N 43°42' E 007°17'0 0.0
2016-Apr-26 09:28N 43°42' E 007°17'0 0.0
2016-Apr-26 08:28N 43°42' E 007°17'0 0.0
2016-Apr-26 07:22N 43°42' E 007°17'0 0.0
2016-Apr-26 06:28N 43°42' E 007°17'4 2.0
2016-Apr-26 04:33N 43°40' E 007°22'69 9.5
2016-Apr-25 21:17N 44°07' E 008°50'6 8.5
2016-Apr-25 20:33N 44°10' E 008°57'9 9.3
2016-Apr-25 19:33N 44°14' E 009°09'8 0.5
2016-Apr-25 04:33N 44°16' E 009°20'1010.4
2016-Apr-25 03:33N 44°08' E 009°30'  

Dump ship's entire track history